createdAt,value
2019-02-07T00:05:14.192Z,101401.65
2019-02-07T00:07:47.886Z,101395.03
2019-02-07T00:10:39.650Z,101385.45
2019-02-07T00:13:24.068Z,101389.30
2019-02-07T00:16:18.731Z,101385.69
2019-02-07T00:19:05.820Z,101372.69
2019-02-07T00:21:40.714Z,101370.80
2019-02-07T00:24:15.273Z,101363.31
2019-02-07T00:26:50.463Z,101348.13
2019-02-07T00:29:24.588Z,101344.99
2019-02-07T00:31:58.197Z,101335.94
2019-02-07T00:34:35.110Z,101331.13
2019-02-07T00:37:13.110Z,101325.13
2019-02-07T00:39:47.900Z,101328.65
2019-02-07T00:42:38.325Z,101319.89
2019-02-07T00:45:29.683Z,101307.75
2019-02-07T00:48:17.936Z,101301.33
2019-02-07T00:50:55.140Z,101308.19
2019-02-07T00:53:28.772Z,101305.84
2019-02-07T00:56:03.340Z,101301.80
2019-02-07T00:58:38.270Z,101295.80
2019-02-07T01:01:23.417Z,101293.61
2019-02-07T01:03:56.905Z,101286.94
2019-02-07T01:06:31.396Z,101288.13
2019-02-07T01:09:08.139Z,101286.66
2019-02-07T01:11:42.555Z,101274.80
2019-02-07T01:14:17.737Z,101271.19
2019-02-07T01:16:51.560Z,101259.13
2019-02-07T01:19:38.945Z,101255.41
2019-02-07T01:22:30.883Z,101246.75
2019-02-07T01:25:19.036Z,101248.08
2019-02-07T01:27:54.614Z,101240.55
2019-02-07T01:30:28.441Z,101241.20
2019-02-07T01:33:02.925Z,101231.35
2019-02-07T01:35:36.615Z,101232.25
2019-02-07T01:38:10.381Z,101227.59
2019-02-07T01:40:43.988Z,101226.97
2019-02-07T01:43:18.074Z,101223.73
2019-02-07T01:45:51.686Z,101219.98
2019-02-07T01:48:25.810Z,101210.32
2019-02-07T01:51:10.624Z,101206.27
2019-02-07T01:53:54.826Z,101198.27
2019-02-07T01:56:28.979Z,101195.34
2019-02-07T01:59:20.766Z,101189.13
2019-02-07T02:02:12.539Z,101183.53
2019-02-07T02:05:03.517Z,101183.86
2019-02-07T02:07:38.039Z,101179.53
2019-02-07T02:10:20.420Z,101171.34
2019-02-07T02:12:56.626Z,101163.08
2019-02-07T02:15:30.410Z,101156.09
2019-02-07T02:18:04.447Z,101157.48
2019-02-07T02:20:39.290Z,101146.14
2019-02-07T02:23:13.388Z,101138.23
2019-02-07T02:25:47.163Z,101144.21
2019-02-07T02:28:34.121Z,101128.03
2019-02-07T02:31:07.834Z,101121.34
2019-02-07T02:33:42.740Z,101110.44
2019-02-07T02:36:17.007Z,101114.00
2019-02-07T02:38:50.421Z,101094.64
2019-02-07T02:41:38.747Z,101104.69
2019-02-07T02:44:29.552Z,101085.31
2019-02-07T02:47:18.403Z,101094.45
2019-02-07T02:49:52.679Z,101087.66
2019-02-07T02:52:26.376Z,101074.33
2019-02-07T02:55:38.211Z,101064.72
2019-02-07T02:58:12.030Z,101072.44
2019-02-07T03:01:23.024Z,101061.85
2019-02-07T03:04:19.660Z,101045.48
2019-02-07T03:07:12.234Z,101041.66
2019-02-07T03:10:28.263Z,101047.48
2019-02-07T03:13:38.972Z,101032.70
2019-02-07T03:16:55.993Z,101025.23
2019-02-07T03:19:48.820Z,101033.80
2019-02-07T03:22:50.702Z,101019.22
2019-02-07T03:25:43.559Z,101018.44
2019-02-07T03:28:36.597Z,101009.38
2019-02-07T03:31:38.298Z,101006.02
2019-02-07T03:34:56.314Z,100997.96
2019-02-07T03:37:58.120Z,100992.12
2019-02-07T03:40:46.711Z,100991.37
2019-02-07T03:43:42.474Z,100977.72
2019-02-07T03:46:38.718Z,100975.13
2019-02-07T03:49:31.846Z,100970.41
2019-02-07T03:52:31.354Z,100973.08
2019-02-07T03:55:44.371Z,100950.62
2019-02-07T03:58:34.724Z,100955.56
2019-02-07T04:01:30.876Z,100946.82
2019-02-07T04:05:01.098Z,100945.42
2019-02-07T04:07:54.425Z,100933.11
2019-02-07T04:10:51.682Z,100939.58
2019-02-07T04:13:50.158Z,100927.59
2019-02-07T04:17:06.529Z,100923.11
2019-02-07T04:20:27.715Z,100924.61
2019-02-07T04:23:45.443Z,100907.13
2019-02-07T04:26:36.865Z,100908.63
2019-02-07T04:29:26.755Z,100902.03
2019-02-07T04:32:24.154Z,100901.84
2019-02-07T04:35:08.706Z,100893.78
2019-02-07T04:38:33.348Z,100895.44
2019-02-07T04:41:24.607Z,100893.36
2019-02-07T04:44:17.595Z,100890.94
2019-02-07T04:47:13.578Z,100882.36
2019-02-07T04:50:28.716Z,100869.01
2019-02-07T04:53:40.313Z,100866.34
2019-02-07T04:56:24.742Z,100860.19
2019-02-07T04:59:12.075Z,100850.73
2019-02-07T05:02:16.016Z,100850.34
2019-02-07T05:05:15.815Z,100843.27
2019-02-07T05:08:02.728Z,100837.16
2019-02-07T05:11:01.198Z,100827.10
2019-02-07T05:27:21.384Z,100799.51
2019-02-07T05:30:23.683Z,100793.12
2019-02-07T05:33:15.472Z,100786.78
2019-02-07T05:36:10.906Z,100786.53
2019-02-07T05:38:59.676Z,100777.27
2019-02-07T05:41:57.947Z,100764.91
2019-02-07T05:45:01.066Z,100764.02
2019-02-07T05:47:49.149Z,100759.34
2019-02-07T05:51:07.162Z,100751.73
2019-02-07T05:54:05.658Z,100743.33
2019-02-07T05:57:07.395Z,100744.34
2019-02-07T06:00:25.591Z,100741.86
2019-02-07T06:03:24.390Z,100733.10
2019-02-07T06:06:29.116Z,100722.29
2019-02-07T06:09:56.837Z,100717.98
2019-02-07T06:13:07.927Z,100713.66
2019-02-07T06:16:35.755Z,100702.75
2019-02-07T06:19:59.335Z,100702.75
2019-02-07T06:23:04.835Z,100701.63
2019-02-07T06:26:40.520Z,100698.83
2019-02-07T06:29:51.985Z,100693.97
2019-02-07T06:33:12.466Z,100684.52
2019-02-07T06:36:32.950Z,100681.05
2019-02-07T06:39:31.222Z,100679.14
2019-02-07T06:42:29.546Z,100669.26
2019-02-07T06:45:30.892Z,100675.27
2019-02-07T06:48:26.016Z,100671.97
2019-02-07T06:51:17.959Z,100662.41
2019-02-07T06:54:09.595Z,100664.44
2019-02-07T06:57:03.811Z,100657.78
2019-02-07T07:00:05.473Z,100655.00
2019-02-07T07:03:18.933Z,100640.66
2019-02-07T07:06:14.911Z,100653.34
2019-02-07T07:09:20.137Z,100642.42
2019-02-07T07:12:16.264Z,100635.00
2019-02-07T07:15:07.970Z,100633.92
2019-02-07T07:18:06.532Z,100621.81
2019-02-07T07:20:59.528Z,100626.73
2019-02-07T07:26:55.118Z,100621.73
2019-02-07T07:29:42.259Z,100610.44
2019-02-07T07:32:33.160Z,100606.56
2019-02-07T07:35:54.431Z,100604.22
2019-02-07T07:38:41.616Z,100612.09
2019-02-07T07:41:37.267Z,100604.11
2019-02-07T07:44:27.525Z,100605.76
2019-02-07T07:47:36.022Z,100602.48
2019-02-07T07:50:50.828Z,100600.23
2019-02-07T07:53:53.862Z,100594.99
2019-02-07T07:56:50.227Z,100589.23
2019-02-07T08:00:19.060Z,100583.77
2019-02-07T08:03:20.966Z,100577.31
2019-02-07T08:06:25.970Z,100582.44
2019-02-07T08:09:47.125Z,100579.89
2019-02-07T08:13:06.079Z,100575.95
2019-02-07T08:16:15.985Z,100570.56
2019-02-07T08:19:11.305Z,100571.58
2019-02-07T08:22:05.362Z,100572.33
2019-02-07T08:25:00.564Z,100566.07
2019-02-07T08:28:01.805Z,100567.02
2019-02-07T08:30:54.314Z,100562.23
2019-02-07T08:34:09.951Z,100561.73
2019-02-07T08:37:14.048Z,100567.47
2019-02-07T08:39:59.607Z,100555.59
2019-02-07T08:43:25.430Z,100558.07
2019-02-07T08:46:17.132Z,100552.00
2019-02-07T08:49:02.089Z,100555.92
2019-02-07T08:52:04.132Z,100546.08
2019-02-07T08:55:06.366Z,100543.22
2019-02-07T08:58:14.146Z,100539.84
2019-02-07T09:01:02.504Z,100533.78
2019-02-07T09:03:53.834Z,100528.77
2019-02-07T09:07:19.177Z,100522.22
2019-02-07T09:10:25.704Z,100526.63
2019-02-07T09:13:43.902Z,100526.22
2019-02-07T09:16:33.801Z,100520.50
2019-02-07T09:19:41.480Z,100526.43
2019-02-07T09:22:59.620Z,100526.16
2019-02-07T09:25:51.119Z,100515.98
2019-02-07T09:29:17.717Z,100519.66
2019-02-07T09:32:03.111Z,100516.50
2019-02-07T09:34:58.783Z,100514.05
2019-02-07T09:37:49.737Z,100523.88
2019-02-07T09:40:40.594Z,100519.17
2019-02-07T09:44:01.236Z,100513.23
2019-02-07T09:47:13.659Z,100514.36
2019-02-07T09:50:11.440Z,100510.05
2019-02-07T09:53:06.439Z,100513.44
2019-02-07T09:56:21.356Z,100498.66
2019-02-07T09:59:39.036Z,100512.50
2019-02-07T10:03:26.682Z,100507.48
2019-02-07T10:06:26.992Z,100507.27
2019-02-07T10:09:19.689Z,100509.31
2019-02-07T10:12:10.721Z,100499.48
2019-02-07T10:15:03.576Z,100494.73
2019-02-07T10:17:50.855Z,100495.56
2019-02-07T10:21:02.576Z,100487.45
2019-02-07T10:24:21.178Z,100492.15
2019-02-07T10:27:13.232Z,100495.52
2019-02-07T10:30:08.799Z,100482.05
2019-02-07T10:33:19.450Z,100489.97
2019-02-07T10:36:26.836Z,100481.94
2019-02-07T10:39:44.303Z,100470.48
2019-02-07T10:42:39.964Z,100478.62
2019-02-07T10:45:31.533Z,100477.09
2019-02-07T10:48:24.461Z,100471.10
2019-02-07T10:51:15.753Z,100468.12
2019-02-07T10:54:07.807Z,100471.20
2019-02-07T10:57:27.591Z,100472.27
2019-02-07T11:00:39.677Z,100465.88
2019-02-07T11:03:50.306Z,100474.69
2019-02-07T11:07:00.051Z,100474.03
2019-02-07T11:09:48.457Z,100475.89
2019-02-07T11:12:37.720Z,100476.16
2019-02-07T11:15:41.758Z,100455.94
2019-02-07T11:18:37.518Z,100467.34
2019-02-07T11:21:29.787Z,100448.94
2019-02-07T11:24:22.602Z,100458.61
2019-02-07T11:27:12.867Z,100447.84
2019-02-07T11:30:16.887Z,100443.72
2019-02-07T11:32:58.902Z,100441.70
2019-02-07T11:36:01.533Z,100439.27
2019-02-07T11:39:22.300Z,100435.55
2019-02-07T11:42:12.866Z,100441.66
2019-02-07T11:45:35.784Z,100433.98
2019-02-07T11:48:24.723Z,100429.89
2019-02-07T11:51:35.546Z,100419.03
2019-02-07T11:54:19.000Z,100426.91
2019-02-07T11:57:19.519Z,100419.26
2019-02-07T12:00:25.842Z,100423.20
2019-02-07T12:03:16.009Z,100420.83
2019-02-07T12:06:10.443Z,100415.55
2019-02-07T12:09:07.787Z,100418.22
2019-02-07T12:12:30.945Z,100416.59
2019-02-07T12:16:15.258Z,100407.77
2019-02-07T12:19:19.960Z,100413.69
2019-02-07T12:22:16.898Z,100410.00
2019-02-07T12:25:27.701Z,100409.39
2019-02-07T12:28:19.116Z,100405.95
2019-02-07T12:31:12.398Z,100405.84
2019-02-07T12:34:31.173Z,100409.20
2019-02-07T12:37:55.931Z,100405.77
2019-02-07T12:40:46.934Z,100405.27
2019-02-07T12:43:38.386Z,100404.11
2019-02-07T12:46:36.079Z,100404.34
2019-02-07T12:49:29.297Z,100406.11
2019-02-07T12:52:50.114Z,100402.26
2019-02-07T12:55:52.755Z,100406.72
2019-02-07T12:59:18.839Z,100398.66
2019-02-07T13:02:14.991Z,100395.29
2019-02-07T13:05:01.951Z,100397.55
2019-02-07T13:07:53.326Z,100401.95
2019-02-07T13:10:57.553Z,100394.08
2019-02-07T13:13:47.345Z,100390.31
2019-02-07T13:16:40.615Z,100397.44
2019-02-07T13:19:27.449Z,100397.83
2019-02-07T13:22:46.893Z,100404.36
2019-02-07T13:25:38.543Z,100397.94
2019-02-07T13:28:41.615Z,100391.61
2019-02-07T13:32:21.384Z,100404.36
2019-02-07T13:35:29.734Z,100407.88
2019-02-07T13:39:05.798Z,100403.94
2019-02-07T13:42:06.470Z,100397.86
2019-02-07T13:45:07.362Z,100407.80
2019-02-07T13:48:17.863Z,100410.41
2019-02-07T13:51:30.108Z,100394.88
2019-02-07T13:54:27.312Z,100417.11
2019-02-07T13:57:19.131Z,100409.98
2019-02-07T14:00:10.179Z,100412.89
2019-02-07T14:03:05.238Z,100419.61
2019-02-07T14:06:18.812Z,100409.62
2019-02-07T14:09:10.418Z,100415.77
2019-02-07T14:12:14.542Z,100420.79
2019-02-07T14:15:48.282Z,100427.08
2019-02-07T14:18:33.165Z,100431.59
2019-02-07T14:21:26.599Z,100440.98
2019-02-07T14:24:28.369Z,100439.78
2019-02-07T14:27:24.138Z,100441.18
2019-02-07T14:30:09.215Z,100449.53
2019-02-07T14:33:14.507Z,100455.69
2019-02-07T14:36:22.360Z,100443.42
2019-02-07T14:39:21.837Z,100442.85
2019-02-07T14:42:01.875Z,100449.20
2019-02-07T14:45:06.177Z,100443.27
2019-02-07T14:48:05.341Z,100446.81
2019-02-07T15:01:25.945Z,100436.23
2019-02-07T15:04:17.925Z,100424.63
2019-02-07T15:06:52.004Z,100423.62
2019-02-07T15:09:41.708Z,100423.17
2019-02-07T15:12:30.420Z,100425.44
2019-02-07T15:15:04.724Z,100421.45
2019-02-07T15:17:38.685Z,100413.52
2019-02-07T15:20:11.276Z,100417.53
2019-02-07T15:22:46.195Z,100407.72
2019-02-07T15:25:37.943Z,100404.37
2019-02-07T15:28:24.661Z,100403.97
2019-02-07T15:30:56.708Z,100407.48
2019-02-07T15:33:30.022Z,100404.81
2019-02-07T15:36:05.197Z,100409.30
2019-02-07T15:38:38.814Z,100415.93
2019-02-07T15:41:12.603Z,100406.66
2019-02-07T15:44:04.591Z,100405.92
2019-02-07T15:46:51.402Z,100409.00
2019-02-07T15:49:37.075Z,100402.73
2019-02-07T15:52:26.759Z,100413.62
2019-02-07T15:55:12.383Z,100404.10
2019-02-07T15:57:45.861Z,100414.38
2019-02-07T16:00:49.793Z,100417.38
2019-02-07T16:03:58.469Z,100421.77
2019-02-07T16:06:32.350Z,100421.86
2019-02-07T16:09:24.389Z,100424.61
2019-02-07T16:12:10.123Z,100421.18
2019-02-07T16:14:56.663Z,100421.41
2019-02-07T16:17:30.917Z,100426.70
2019-02-07T16:20:06.246Z,100435.09
2019-02-07T16:22:42.457Z,100429.89
2019-02-07T16:25:18.370Z,100431.84
2019-02-07T16:27:52.147Z,100431.84
2019-02-07T16:30:24.953Z,100435.86
2019-02-07T16:32:58.404Z,100427.52
2019-02-07T16:35:41.624Z,100438.38
2019-02-07T16:38:21.431Z,100441.94
2019-02-07T16:40:54.834Z,100442.84
2019-02-07T16:43:32.567Z,100442.55
2019-02-07T16:46:09.343Z,100438.53
2019-02-07T16:48:42.473Z,100440.37
2019-02-07T16:51:14.972Z,100447.52
2019-02-07T16:54:00.037Z,100438.07
2019-02-07T16:56:45.328Z,100445.52
2019-02-07T16:59:36.813Z,100448.62
2019-02-07T17:02:22.178Z,100443.13
2019-02-07T17:05:10.679Z,100438.23
2019-02-07T17:07:44.079Z,100455.47
2019-02-07T17:10:20.567Z,100436.28
2019-02-07T17:12:54.066Z,100442.73
2019-02-07T17:15:27.272Z,100436.05
2019-02-07T17:18:21.527Z,100435.02
2019-02-07T17:20:55.964Z,100448.48
2019-02-07T17:23:31.119Z,100459.80
2019-02-07T17:45:50.247Z,100442.89
2019-02-07T17:48:24.903Z,100444.08
2019-02-07T17:51:09.865Z,100449.39
2019-02-07T17:53:55.454Z,100439.87
2019-02-07T17:56:29.333Z,100463.11
2019-02-07T17:59:02.760Z,100460.05
2019-02-07T18:01:36.415Z,100455.08
2019-02-07T18:04:10.506Z,100452.94
2019-02-07T18:06:44.065Z,100440.59
2019-02-07T18:09:17.982Z,100462.01
2019-02-07T18:12:09.691Z,100455.62
2019-02-07T18:14:44.199Z,100458.59
2019-02-07T18:17:42.179Z,100460.36
2019-02-07T18:20:33.695Z,100468.53
2019-02-07T18:23:06.257Z,100467.42
2019-02-07T18:25:39.985Z,100476.94
2019-02-07T18:28:13.696Z,100485.20
2019-02-07T18:30:47.115Z,100476.27
2019-02-07T18:33:20.617Z,100486.62
2019-02-07T18:35:56.130Z,100484.68
2019-02-07T18:38:29.902Z,100479.39
2019-02-07T18:41:03.709Z,100491.89
2019-02-07T18:43:39.250Z,100483.41
2019-02-07T18:46:23.340Z,100470.25
2019-02-07T18:48:57.945Z,100473.95
2019-02-07T18:51:49.552Z,100470.59
2019-02-07T18:54:34.344Z,100474.61
2019-02-07T18:57:18.722Z,100472.38
2019-02-07T19:00:12.385Z,100475.51
2019-02-07T19:02:46.698Z,100481.42
2019-02-07T19:05:22.975Z,100481.56
2019-02-07T19:07:56.142Z,100490.20
2019-02-07T19:10:30.084Z,100489.75
2019-02-07T19:13:05.503Z,100492.28
2019-02-07T19:15:41.545Z,100493.09
2019-02-07T19:18:13.626Z,100494.98
2019-02-07T19:20:45.917Z,100495.73
2019-02-07T19:23:20.493Z,100498.58
2019-02-07T19:25:52.225Z,100492.16
2019-02-07T19:28:25.098Z,100494.26
2019-02-07T19:30:59.288Z,100498.35
2019-02-07T19:33:33.492Z,100495.76
2019-02-07T19:36:08.250Z,100500.95
2019-02-07T19:38:43.202Z,100495.90
2019-02-07T19:41:16.701Z,100493.50
2019-02-07T19:43:50.341Z,100504.66
2019-02-07T19:46:22.869Z,100489.13
2019-02-07T19:48:55.499Z,100483.71
2019-02-07T19:51:28.236Z,100493.31
2019-02-07T19:54:01.293Z,100503.17
2019-02-07T19:56:34.781Z,100508.97
2019-02-07T19:59:09.252Z,100510.54
2019-02-07T20:01:55.211Z,100522.21
2019-02-07T20:04:30.427Z,100533.78
2019-02-07T20:17:49.587Z,100608.53
2019-02-07T20:20:34.824Z,100616.80
2019-02-07T20:23:21.272Z,100628.45
2019-02-07T20:25:55.071Z,100633.52
2019-02-07T20:28:28.666Z,100632.16
2019-02-07T20:31:01.816Z,100638.21
2019-02-07T20:33:59.963Z,100636.87
2019-02-07T20:36:33.024Z,100635.02
2019-02-07T20:39:09.039Z,100637.09
2019-02-07T20:41:44.492Z,100639.83
2019-02-07T20:44:18.978Z,100636.25
2019-02-07T20:47:07.173Z,100642.28
2019-02-07T20:49:42.317Z,100648.34
2019-02-07T20:52:16.407Z,100653.58
2019-02-07T20:54:49.960Z,100653.47
2019-02-07T20:57:50.370Z,100650.27
2019-02-07T21:00:32.029Z,100663.59
2019-02-07T21:03:08.185Z,100653.74
2019-02-07T21:05:43.275Z,100662.16
2019-02-07T21:52:56.728Z,100730.61
2019-02-07T21:55:31.826Z,100735.42
2019-02-07T21:58:05.154Z,100735.13
2019-02-07T22:00:41.201Z,100736.86
2019-02-07T22:03:15.313Z,100739.53
2019-02-07T22:05:48.757Z,100749.50
2019-02-07T22:08:33.286Z,100747.17
2019-02-07T22:11:09.294Z,100743.66
2019-02-07T22:13:48.980Z,100756.41
2019-02-07T22:16:24.536Z,100764.21
2019-02-07T22:19:03.390Z,100758.87
2019-02-07T22:21:38.077Z,100769.45
2019-02-07T22:24:19.144Z,100770.50
2019-02-07T22:26:58.473Z,100768.75
2019-02-07T22:29:33.107Z,100774.72
2019-02-07T22:32:07.471Z,100777.08
2019-02-07T22:34:40.767Z,100780.88
2019-02-07T22:37:18.085Z,100779.54
2019-02-07T22:39:57.306Z,100783.33
2019-02-07T22:42:30.724Z,100782.63
2019-02-07T22:45:04.861Z,100783.97
2019-02-07T22:47:43.068Z,100797.31
2019-02-07T22:50:21.763Z,100799.98
2019-02-07T22:52:56.997Z,100791.34
2019-02-07T22:55:30.555Z,100797.18
2019-02-07T22:58:04.577Z,100798.67
2019-02-07T23:01:19.816Z,100791.62
2019-02-07T23:03:58.258Z,100795.63
2019-02-07T23:06:30.656Z,100792.31
